createdAt,value
2019-05-19T00:01:52.451Z,8.17
2019-05-19T00:04:21.999Z,7.90
2019-05-19T00:06:51.903Z,9.73
2019-05-19T00:09:21.493Z,10.07
2019-05-19T00:11:51.022Z,9.10
2019-05-19T00:14:20.686Z,10.17
2019-05-19T00:16:50.255Z,10.60
2019-05-19T00:19:26.902Z,10.30
2019-05-19T00:21:51.109Z,8.37
2019-05-19T00:24:20.705Z,8.60
2019-05-19T00:26:50.543Z,9.40
2019-05-19T00:29:32.482Z,9.27
2019-05-19T00:32:02.275Z,7.93
2019-05-19T00:34:31.938Z,9.03
2019-05-19T00:37:01.809Z,8.47
2019-05-19T00:39:31.767Z,8.30
2019-05-19T00:42:01.310Z,7.93
2019-05-19T00:44:31.187Z,8.13
2019-05-19T00:47:00.747Z,7.83
2019-05-19T00:49:41.003Z,7.80
2019-05-19T00:52:02.246Z,8.97
2019-05-19T00:54:31.955Z,8.83
2019-05-19T00:57:04.182Z,9.73
2019-05-19T00:59:34.271Z,9.30
2019-05-19T01:02:03.871Z,8.10
2019-05-19T01:04:33.427Z,9.00
2019-05-19T01:07:03.022Z,7.70
2019-05-19T01:09:32.650Z,8.37
2019-05-19T01:12:02.235Z,8.90
2019-05-19T01:14:31.831Z,7.90
2019-05-19T01:17:03.482Z,7.93
2019-05-19T01:19:33.352Z,9.27
2019-05-19T01:22:03.254Z,9.87
2019-05-19T01:24:33.160Z,8.50
2019-05-19T01:27:02.750Z,8.40
2019-05-19T01:29:32.390Z,9.67
2019-05-19T01:32:01.950Z,10.23
2019-05-19T01:34:31.766Z,9.27
2019-05-19T01:37:01.634Z,8.17
2019-05-19T01:39:31.307Z,8.70
2019-05-19T01:42:00.898Z,8.63
2019-05-19T01:44:30.713Z,9.63
2019-05-19T01:47:00.554Z,9.30
2019-05-19T01:49:30.118Z,7.63
2019-05-19T01:52:00.107Z,8.27
2019-05-19T01:54:29.703Z,8.20
2019-05-19T01:56:59.596Z,8.63
2019-05-19T01:59:29.306Z,8.20
2019-05-19T02:01:59.056Z,8.10
2019-05-19T02:04:28.649Z,8.77
2019-05-19T02:06:58.333Z,8.97
2019-05-19T02:09:27.903Z,10.00
2019-05-19T02:11:57.588Z,8.67
2019-05-19T02:14:27.222Z,10.40
2019-05-19T02:16:56.832Z,9.67
2019-05-19T02:19:26.390Z,8.67
2019-05-19T02:21:55.970Z,9.27
2019-05-19T02:24:25.574Z,8.57
2019-05-19T02:26:55.229Z,8.57
2019-05-19T02:29:24.807Z,10.00
2019-05-19T02:31:54.689Z,9.33
2019-05-19T02:34:24.271Z,7.30
2019-05-19T02:36:53.843Z,9.20
2019-05-19T02:39:23.751Z,9.30
2019-05-19T02:41:53.285Z,9.10
2019-05-19T02:44:23.095Z,8.43
2019-05-19T02:46:52.667Z,9.40
2019-05-19T02:49:23.008Z,9.80
2019-05-19T02:51:52.580Z,10.10
2019-05-19T02:54:26.733Z,9.30
2019-05-19T02:56:56.633Z,9.73
2019-05-19T02:59:26.406Z,9.97
2019-05-19T03:02:04.862Z,9.97
2019-05-19T03:04:35.503Z,9.40
2019-05-19T03:07:05.109Z,9.23
2019-05-19T03:09:34.665Z,9.23
2019-05-19T03:12:04.294Z,9.13
2019-05-19T03:14:34.109Z,9.43
2019-05-19T03:17:03.959Z,9.27
2019-05-19T03:19:33.777Z,8.50
2019-05-19T03:22:03.387Z,9.30
2019-05-19T03:24:33.226Z,9.70
2019-05-19T03:27:02.884Z,10.00
2019-05-19T03:29:37.198Z,8.70
2019-05-19T03:32:25.847Z,10.37
2019-05-19T03:35:03.637Z,9.60
2019-05-19T03:37:34.383Z,9.37
2019-05-19T03:40:05.920Z,9.50
2019-05-19T03:42:35.470Z,8.63
2019-05-19T03:45:05.064Z,9.70
2019-05-19T03:47:34.653Z,9.63
2019-05-19T03:50:04.417Z,9.40
2019-05-19T03:52:34.275Z,9.73
2019-05-19T03:55:04.042Z,10.00
2019-05-19T03:57:33.923Z,10.90
2019-05-19T04:00:35.830Z,9.73
2019-05-19T04:03:05.404Z,9.90
2019-05-19T04:05:35.025Z,9.23
2019-05-19T04:08:04.675Z,9.33
2019-05-19T04:10:34.583Z,10.43
2019-05-19T04:13:04.155Z,9.37
2019-05-19T04:15:33.783Z,9.43
2019-05-19T04:18:03.362Z,9.20
2019-05-19T04:20:32.911Z,10.13
2019-05-19T04:23:20.614Z,9.67
2019-05-19T04:25:49.119Z,8.63
2019-05-19T04:28:20.701Z,9.53
2019-05-19T04:30:50.358Z,9.70
2019-05-19T04:33:19.945Z,10.63
2019-05-19T04:35:49.524Z,10.83
2019-05-19T04:38:19.102Z,10.50
2019-05-19T04:40:48.674Z,11.70
2019-05-19T04:43:18.505Z,10.40
2019-05-19T04:45:48.383Z,11.43
2019-05-19T04:48:17.951Z,10.47
2019-05-19T04:50:47.532Z,10.10
2019-05-19T04:53:17.654Z,10.83
2019-05-19T04:58:44.314Z,12.10
2019-05-19T05:01:14.150Z,11.47
2019-05-19T05:03:43.716Z,11.17
2019-05-19T05:06:14.266Z,10.33
2019-05-19T05:08:45.065Z,8.90
2019-05-19T05:11:14.630Z,9.50
2019-05-19T05:13:44.518Z,9.30
2019-05-19T05:16:14.222Z,9.60
2019-05-19T05:18:44.050Z,8.93
2019-05-19T05:21:13.976Z,8.13
2019-05-19T05:23:49.025Z,8.63
2019-05-19T05:26:19.775Z,8.70
2019-05-19T05:28:49.310Z,8.53
2019-05-19T05:31:18.876Z,8.43
2019-05-19T05:33:48.442Z,10.03
2019-05-19T05:36:18.002Z,9.03
2019-05-19T05:38:47.940Z,9.60
2019-05-19T05:41:17.761Z,8.10
2019-05-19T05:43:47.412Z,8.83
2019-05-19T05:46:16.964Z,9.10
2019-05-19T05:48:46.505Z,8.87
2019-05-19T05:51:16.349Z,9.43
2019-05-19T05:53:45.959Z,9.67
2019-05-19T05:56:15.542Z,9.37
2019-05-19T05:58:45.133Z,11.30
2019-05-19T06:01:33.990Z,11.90
2019-05-19T06:04:03.579Z,10.63
2019-05-19T06:06:33.155Z,10.23
2019-05-19T06:09:02.726Z,10.80
2019-05-19T06:11:32.294Z,11.60
2019-05-19T06:14:01.881Z,10.37
2019-05-19T06:16:31.687Z,11.60
2019-05-19T06:19:01.307Z,11.00
2019-05-19T06:21:30.846Z,10.37
2019-05-19T06:24:00.426Z,11.10
2019-05-19T06:26:29.995Z,11.43
2019-05-19T06:29:06.272Z,10.37
2019-05-19T06:31:35.815Z,9.60
2019-05-19T06:34:05.751Z,9.03
2019-05-19T06:36:35.606Z,10.67
2019-05-19T06:39:06.860Z,10.17
2019-05-19T06:41:36.475Z,10.93
2019-05-19T06:44:06.067Z,11.30
2019-05-19T06:46:35.751Z,10.40
2019-05-19T06:49:06.183Z,10.80
2019-05-19T06:51:35.718Z,11.23
2019-05-19T06:54:05.303Z,10.90
2019-05-19T06:56:35.188Z,12.03
2019-05-19T06:59:49.256Z,10.70
2019-05-19T07:02:18.871Z,12.07
2019-05-19T07:04:48.566Z,10.60
2019-05-19T07:07:18.170Z,13.23
2019-05-19T07:09:57.814Z,12.83
2019-05-19T07:12:19.258Z,12.00
2019-05-19T07:14:48.839Z,12.20
2019-05-19T07:17:18.415Z,10.87
2019-05-19T07:19:47.978Z,12.57
2019-05-19T07:22:17.535Z,11.67
2019-05-19T07:24:47.102Z,12.73
2019-05-19T07:27:17.170Z,13.00
2019-05-19T07:29:47.273Z,12.47
2019-05-19T07:32:16.894Z,12.47
2019-05-19T07:34:46.866Z,12.67
2019-05-19T07:37:36.591Z,13.27
2019-05-19T07:40:06.250Z,13.17
2019-05-19T07:42:35.822Z,12.57
2019-05-19T07:45:05.914Z,12.83
2019-05-19T07:47:35.554Z,11.93
2019-05-19T07:50:06.043Z,12.73
2019-05-19T07:52:35.643Z,12.30
2019-05-19T07:55:34.555Z,11.63
2019-05-19T07:58:04.239Z,11.27
2019-05-19T08:00:33.860Z,11.93
2019-05-19T08:03:03.470Z,13.97
2019-05-19T08:05:33.776Z,13.60
2019-05-19T08:08:03.379Z,12.27
2019-05-19T08:10:32.975Z,13.90
2019-05-19T08:13:02.842Z,12.57
2019-05-19T08:15:32.914Z,11.87
2019-05-19T08:18:03.923Z,11.90
2019-05-19T08:20:35.673Z,11.87
2019-05-19T08:23:05.656Z,10.97
2019-05-19T08:25:35.226Z,11.73
2019-05-19T08:28:08.724Z,11.00
2019-05-19T08:30:36.952Z,11.12
2019-05-19T08:33:06.813Z,10.40
2019-05-19T08:35:36.430Z,11.53
2019-05-19T08:38:06.066Z,11.03
2019-05-19T08:40:35.773Z,11.40
2019-05-19T08:43:08.738Z,10.20
2019-05-19T08:45:41.659Z,9.83
2019-05-19T08:48:19.715Z,10.00
2019-05-19T08:50:49.051Z,10.65
2019-05-19T08:53:18.742Z,9.63
2019-05-19T08:55:49.847Z,9.55
2019-05-19T08:58:21.331Z,9.85
2019-05-19T09:00:51.277Z,10.30
2019-05-19T09:03:21.862Z,10.25
2019-05-19T09:05:51.603Z,9.83
2019-05-19T09:08:21.194Z,8.63
2019-05-19T09:10:51.170Z,8.25
2019-05-19T09:13:20.841Z,8.53
2019-05-19T09:15:50.676Z,8.28
2019-05-19T09:18:20.454Z,8.15
2019-05-19T09:20:50.030Z,8.73
2019-05-19T09:23:20.630Z,7.92
2019-05-19T09:25:50.438Z,7.72
2019-05-19T09:28:20.104Z,7.70
2019-05-19T09:30:49.803Z,7.65
2019-05-19T09:33:19.513Z,8.40
2019-05-19T09:35:53.906Z,7.65
2019-05-19T09:38:24.530Z,7.53
2019-05-19T09:40:54.419Z,7.50
2019-05-19T09:43:24.058Z,6.92
2019-05-19T09:45:53.922Z,6.80
2019-05-19T09:48:23.834Z,6.80
2019-05-19T09:50:53.578Z,6.00
2019-05-19T09:53:23.355Z,6.30
2019-05-19T09:55:52.989Z,6.78
2019-05-19T09:58:22.578Z,6.25
2019-05-19T10:00:52.455Z,6.53
2019-05-19T10:03:22.187Z,6.20
2019-05-19T10:05:52.148Z,6.35
2019-05-19T10:08:32.095Z,6.30
2019-05-19T10:11:24.579Z,6.72
2019-05-19T10:13:54.191Z,5.75
2019-05-19T10:16:23.796Z,6.40
2019-05-19T10:18:53.520Z,6.12
2019-05-19T10:21:23.415Z,6.10
2019-05-19T10:23:53.026Z,5.90
2019-05-19T10:26:22.685Z,6.08
2019-05-19T10:28:52.520Z,5.42
2019-05-19T10:31:22.662Z,5.85
2019-05-19T10:33:52.566Z,5.95
2019-05-19T10:36:22.151Z,5.55
2019-05-19T10:38:52.131Z,5.80
2019-05-19T10:41:21.886Z,5.80
2019-05-19T10:44:00.844Z,5.37
2019-05-19T10:46:31.159Z,5.28
2019-05-19T10:49:01.262Z,6.12
2019-05-19T10:51:32.150Z,5.67
2019-05-19T10:54:01.876Z,6.50
2019-05-19T10:56:31.487Z,5.47
2019-05-19T10:59:01.096Z,6.20
2019-05-19T11:01:30.659Z,5.73
2019-05-19T11:04:00.512Z,6.07
2019-05-19T11:06:30.167Z,6.00
2019-05-19T11:08:59.778Z,5.50
2019-05-19T11:11:29.403Z,5.50
2019-05-19T11:13:59.396Z,6.00
2019-05-19T11:17:08.063Z,6.00
2019-05-19T11:19:37.894Z,6.37
2019-05-19T11:22:07.638Z,4.90
2019-05-19T11:24:37.211Z,5.30
2019-05-19T11:27:06.783Z,5.50
2019-05-19T11:29:36.363Z,5.33
2019-05-19T11:32:05.911Z,5.80
2019-05-19T11:34:36.548Z,5.97
2019-05-19T11:37:07.406Z,5.90
2019-05-19T11:39:37.846Z,5.20
2019-05-19T11:42:07.413Z,6.00
2019-05-19T11:44:37.111Z,5.80
2019-05-19T11:47:06.699Z,6.13
2019-05-19T11:49:36.321Z,6.17
2019-05-19T11:52:05.887Z,4.80
2019-05-19T11:54:35.535Z,4.97
2019-05-19T11:57:05.167Z,5.43
2019-05-19T11:59:34.725Z,5.23
2019-05-19T12:02:04.268Z,5.57
2019-05-19T12:04:34.111Z,5.60
2019-05-19T12:07:04.947Z,7.13
2019-05-19T12:09:34.806Z,6.40
2019-05-19T12:12:04.351Z,5.53
2019-05-19T12:14:33.925Z,6.00
2019-05-19T12:17:03.606Z,5.43
2019-05-19T12:19:33.242Z,5.80
2019-05-19T12:22:03.600Z,5.80
2019-05-19T12:24:34.549Z,5.80
2019-05-19T12:27:04.111Z,5.30
2019-05-19T12:29:33.825Z,6.07
2019-05-19T12:32:03.458Z,5.90
2019-05-19T12:34:42.359Z,5.80
2019-05-19T12:37:11.958Z,5.73
2019-05-19T12:39:41.627Z,5.93
2019-05-19T12:42:11.278Z,5.83
2019-05-19T12:44:40.915Z,5.87
2019-05-19T12:47:10.558Z,5.87
2019-05-19T12:49:40.162Z,5.57
2019-05-19T12:52:09.790Z,5.33
2019-05-19T12:54:39.525Z,5.80
2019-05-19T12:57:09.083Z,5.67
2019-05-19T12:59:38.888Z,5.47
2019-05-19T13:02:08.583Z,6.30
2019-05-19T13:04:38.317Z,7.57
2019-05-19T13:07:08.135Z,7.80
2019-05-19T13:09:37.689Z,8.30
2019-05-19T13:12:07.669Z,7.90
2019-05-19T13:14:37.739Z,7.50
2019-05-19T13:17:07.422Z,7.27
2019-05-19T13:19:37.292Z,7.43
2019-05-19T13:22:06.964Z,7.50
2019-05-19T13:24:36.668Z,7.60
2019-05-19T13:27:06.236Z,7.43
2019-05-19T13:29:37.328Z,6.30
2019-05-19T13:32:07.120Z,6.50
2019-05-19T13:34:36.811Z,5.90
2019-05-19T13:37:06.826Z,6.90
2019-05-19T13:39:36.667Z,6.30
2019-05-19T13:42:06.321Z,6.57
2019-05-19T13:44:36.183Z,6.33
2019-05-19T13:47:06.226Z,6.30
2019-05-19T13:49:35.987Z,5.97
2019-05-19T13:52:05.527Z,7.40
2019-05-19T13:54:35.538Z,7.00
2019-05-19T13:57:12.311Z,6.50
2019-05-19T13:59:36.924Z,6.53
2019-05-19T14:02:06.579Z,5.77
2019-05-19T14:04:46.294Z,7.33
2019-05-19T14:07:16.072Z,7.67
2019-05-19T14:09:45.923Z,7.43
2019-05-19T14:12:15.802Z,6.70
2019-05-19T14:14:45.523Z,7.10
2019-05-19T14:17:15.209Z,7.37
2019-05-19T14:19:44.931Z,6.53
2019-05-19T14:22:14.502Z,8.03
2019-05-19T14:24:44.418Z,7.20
2019-05-19T14:27:27.356Z,6.80
2019-05-19T14:29:45.803Z,7.50
2019-05-19T14:32:15.713Z,7.53
2019-05-19T14:34:45.571Z,7.27
2019-05-19T14:37:15.143Z,7.87
2019-05-19T14:39:44.755Z,8.60
2019-05-19T14:42:17.698Z,9.67
2019-05-19T14:44:47.501Z,9.40
2019-05-19T14:47:17.154Z,8.60
2019-05-19T14:49:47.143Z,7.80
2019-05-19T14:55:25.479Z,8.63
2019-05-19T14:57:55.170Z,7.43
2019-05-19T15:00:25.238Z,7.47
2019-05-19T15:02:54.926Z,7.70
2019-05-19T15:05:24.932Z,8.30
2019-05-19T15:07:54.670Z,7.43
2019-05-19T15:10:24.760Z,7.43
2019-05-19T15:12:55.236Z,7.53
2019-05-19T15:15:25.158Z,7.60
2019-05-19T15:17:54.755Z,8.97
2019-05-19T15:20:24.440Z,7.57
2019-05-19T15:23:02.673Z,8.10
2019-05-19T15:25:32.865Z,7.43
2019-05-19T15:28:05.223Z,7.10
2019-05-19T15:30:42.060Z,7.83
2019-05-19T15:33:11.767Z,7.83
2019-05-19T15:35:41.815Z,7.03
2019-05-19T15:38:12.227Z,7.43
2019-05-19T15:40:41.930Z,7.30
2019-05-19T15:43:11.634Z,6.93
2019-05-19T15:45:41.594Z,6.63
2019-05-19T15:48:11.546Z,5.83
2019-05-19T15:50:41.592Z,6.73
2019-05-19T15:53:11.582Z,6.57
2019-05-19T15:55:53.789Z,8.77
2019-05-19T15:58:21.389Z,5.83
2019-05-19T16:00:51.365Z,5.87
2019-05-19T16:03:21.079Z,5.90
2019-05-19T16:05:50.755Z,5.53
2019-05-19T16:08:21.387Z,5.73
2019-05-19T16:10:51.044Z,6.33
2019-05-19T16:13:22.029Z,5.60
2019-05-19T16:15:52.183Z,6.83
2019-05-19T16:18:23.139Z,6.33
2019-05-19T16:20:53.385Z,6.17
2019-05-19T16:23:34.652Z,9.30
2019-05-19T16:26:06.041Z,7.07
2019-05-19T16:28:37.794Z,6.70
2019-05-19T16:31:08.902Z,6.40
2019-05-19T16:33:38.779Z,6.60
2019-05-19T16:36:09.023Z,6.43
2019-05-19T16:38:39.710Z,6.37
2019-05-19T16:41:17.453Z,6.97
2019-05-19T16:43:59.751Z,6.73
2019-05-19T16:46:29.647Z,6.10
2019-05-19T16:49:00.110Z,6.13
2019-05-19T16:51:32.524Z,6.10
2019-05-19T16:54:05.655Z,5.50
2019-05-19T16:56:35.663Z,6.10
2019-05-19T16:59:05.849Z,5.73
2019-05-19T17:01:36.567Z,5.77
2019-05-19T17:04:06.797Z,6.80
2019-05-19T17:06:37.117Z,6.23
2019-05-19T17:09:07.060Z,6.20
2019-05-19T17:11:37.391Z,6.70
2019-05-19T17:14:07.098Z,5.43
2019-05-19T17:16:36.880Z,7.30
2019-05-19T17:19:06.652Z,5.80
2019-05-19T17:21:37.143Z,6.30
2019-05-19T17:24:06.948Z,6.10
2019-05-19T17:26:37.039Z,6.27
2019-05-19T17:29:06.693Z,6.07
2019-05-19T17:31:36.551Z,6.00
2019-05-19T17:34:06.131Z,5.80
2019-05-19T17:36:36.023Z,5.77
2019-05-19T17:39:07.098Z,7.00
2019-05-19T17:41:37.125Z,13.33
2019-05-19T17:44:06.957Z,6.10
2019-05-19T17:46:37.643Z,5.40
2019-05-19T17:49:07.610Z,5.77
2019-05-19T17:51:37.466Z,5.80
2019-05-19T17:54:07.378Z,5.43
2019-05-19T17:56:37.428Z,5.47
2019-05-19T17:59:16.119Z,5.30
2019-05-19T18:02:03.236Z,6.00
2019-05-19T18:04:33.313Z,5.33
2019-05-19T18:07:02.991Z,5.90
2019-05-19T18:09:33.060Z,5.20
2019-05-19T18:12:02.670Z,5.60
2019-05-19T18:14:32.633Z,6.03
2019-05-19T18:17:02.704Z,5.80
2019-05-19T18:19:32.565Z,5.80
2019-05-19T18:22:02.678Z,5.63
2019-05-19T18:24:32.353Z,6.07
2019-05-19T18:27:02.113Z,5.40
2019-05-19T18:29:32.198Z,6.50
2019-05-19T18:32:02.190Z,5.57
2019-05-19T18:34:32.499Z,5.47
2019-05-19T18:37:02.218Z,5.53
2019-05-19T18:39:31.875Z,5.00
2019-05-19T18:42:06.193Z,5.10
2019-05-19T18:44:38.960Z,5.13
2019-05-19T18:47:08.903Z,5.10
2019-05-19T18:49:39.424Z,4.80
2019-05-19T18:52:08.999Z,5.43
2019-05-19T18:54:39.168Z,4.87
2019-05-19T18:57:09.867Z,5.40
2019-05-19T18:59:47.250Z,5.57
2019-05-19T19:02:10.941Z,4.77
2019-05-19T19:04:40.546Z,6.37
2019-05-19T19:07:10.637Z,5.03
2019-05-19T19:09:41.092Z,5.30
2019-05-19T19:12:10.888Z,5.17
2019-05-19T19:14:40.569Z,4.90
2019-05-19T19:17:11.996Z,6.30
2019-05-19T19:19:44.490Z,5.03
2019-05-19T19:22:14.479Z,8.10
2019-05-19T19:24:44.419Z,4.93
2019-05-19T19:27:13.978Z,8.87
2019-05-19T19:29:44.173Z,5.50
2019-05-19T19:32:14.175Z,5.30
2019-05-19T19:34:43.891Z,5.10
2019-05-19T19:37:13.503Z,4.50
2019-05-19T19:39:43.082Z,5.33
2019-05-19T19:42:12.794Z,5.30
2019-05-19T19:44:42.642Z,4.63
2019-05-19T19:47:12.561Z,5.70
2019-05-19T19:49:42.123Z,4.97
2019-05-19T19:52:11.770Z,5.50
2019-05-19T19:54:43.034Z,5.47
2019-05-19T19:57:12.938Z,5.20
2019-05-19T19:59:42.850Z,5.57
2019-05-19T20:02:12.505Z,5.03
2019-05-19T20:04:42.453Z,5.00
2019-05-19T20:07:13.831Z,5.60
2019-05-19T20:09:43.498Z,5.13
2019-05-19T20:12:13.423Z,5.13
2019-05-19T20:14:43.440Z,5.33
2019-05-19T20:17:13.317Z,6.10
2019-05-19T20:19:43.049Z,5.60
2019-05-19T20:22:12.960Z,5.97
2019-05-19T20:24:42.842Z,5.87
2019-05-19T20:27:16.417Z,5.60
2019-05-19T20:29:47.621Z,5.27
2019-05-19T20:32:17.241Z,5.50
2019-05-19T20:34:46.914Z,5.20
2019-05-19T20:37:17.150Z,5.73
2019-05-19T20:39:47.065Z,5.70
2019-05-19T20:42:17.015Z,5.50
2019-05-19T20:44:46.915Z,5.83
2019-05-19T20:47:16.794Z,5.30
2019-05-19T20:49:46.475Z,6.07
2019-05-19T20:52:16.058Z,5.60
2019-05-19T20:54:45.942Z,5.77
2019-05-19T20:57:15.543Z,6.07
2019-05-19T20:59:45.183Z,5.10
2019-05-19T21:02:18.598Z,6.30
2019-05-19T21:04:54.578Z,5.20
2019-05-19T21:07:26.035Z,5.70
2019-05-19T21:09:55.628Z,5.47
2019-05-19T21:12:25.633Z,5.97
2019-05-19T21:14:55.199Z,7.10
2019-05-19T21:17:24.755Z,6.80
2019-05-19T21:19:54.371Z,6.20
2019-05-19T21:22:25.282Z,6.73
2019-05-19T21:24:55.190Z,6.90
2019-05-19T21:27:24.804Z,6.67
2019-05-19T21:29:55.072Z,7.07
2019-05-19T21:32:24.737Z,6.87
2019-05-19T21:34:54.406Z,7.23
2019-05-19T21:37:23.948Z,6.50
2019-05-19T21:39:53.518Z,7.37
2019-05-19T21:42:23.167Z,7.47
2019-05-19T21:44:52.734Z,7.30
2019-05-19T21:47:22.360Z,7.20
2019-05-19T21:49:52.227Z,6.47
2019-05-19T21:52:21.839Z,6.70
2019-05-19T21:54:51.395Z,5.93
2019-05-19T21:57:20.956Z,7.40
2019-05-19T21:59:50.497Z,6.87
2019-05-19T22:02:20.399Z,7.70
2019-05-19T22:04:50.026Z,6.70
2019-05-19T22:07:30.352Z,7.30
2019-05-19T22:09:59.901Z,6.87
2019-05-19T22:12:29.828Z,6.87
2019-05-19T22:14:59.394Z,7.07
2019-05-19T22:17:28.986Z,7.60
2019-05-19T22:19:58.833Z,7.30
2019-05-19T22:22:29.024Z,6.80
2019-05-19T22:25:01.414Z,6.93
2019-05-19T22:27:31.191Z,7.90
2019-05-19T22:30:00.746Z,7.20
2019-05-19T22:32:30.389Z,7.20
2019-05-19T22:35:00.248Z,6.40
2019-05-19T22:37:29.814Z,7.23
2019-05-19T22:39:59.846Z,7.33
2019-05-19T22:42:30.462Z,6.77
2019-05-19T22:45:00.027Z,6.70
2019-05-19T22:47:29.638Z,5.03
2019-05-19T22:49:59.574Z,6.33
2019-05-19T22:52:29.158Z,6.93
2019-05-19T22:54:59.211Z,7.43
2019-05-19T22:57:28.882Z,7.20
2019-05-19T22:59:58.514Z,6.90
2019-05-19T23:02:29.177Z,5.77
2019-05-19T23:04:59.027Z,6.83
2019-05-19T23:07:29.765Z,6.60
2019-05-19T23:09:59.903Z,6.83
2019-05-19T23:12:29.499Z,5.43
2019-05-19T23:14:59.371Z,7.40
2019-05-19T23:17:29.027Z,6.80
2019-05-19T23:19:58.839Z,6.87
2019-05-19T23:22:28.399Z,6.80
2019-05-19T23:24:57.965Z,7.03
2019-05-19T23:27:27.523Z,7.03
2019-05-19T23:29:57.107Z,7.30
2019-05-19T23:32:26.928Z,7.10
2019-05-19T23:34:56.471Z,7.47
2019-05-19T23:37:26.675Z,6.60
2019-05-19T23:39:56.235Z,7.40
2019-05-19T23:42:26.329Z,6.97
2019-05-19T23:44:55.906Z,6.50
2019-05-19T23:47:25.474Z,6.23
2019-05-19T23:49:55.107Z,7.13
2019-05-19T23:52:24.678Z,6.90
2019-05-19T23:54:54.343Z,6.90
2019-05-19T23:57:23.963Z,6.53
2019-05-19T23:59:53.521Z,7.27
